Orchard Park, New York
Current Conditions -  °F | °C
As of 12:54 PM on Saturday 25 Oct 2014 (Local Time) from KBUF Reporting Station
Scattered Clouds Scattered Clouds  
Wind Chill: 61°   Ceiling: Unl
Heat Index: 61°   Visibility: 10mi
Dew Point: 50°   Wind: 25mph
Humidity: 67%   Direction: 240°WSW
Pressure: 29.67"   Gusts: 35mph
Location:  42.77°N, 78.74°W
Report Text: KBUF 251654Z 24022G30KT 10SM FEW040 SCT065 SCT100 16/10 A2967 RMK AO2 PK WND 21032/1603 SLP048 T01610100
Loading
Personal Weather Stations






























Interactive Weather Map
Tropical Storm Tracking
New forecast layout! Learn more

10-Day Weather Forecast

Advertisements
Track Severe Weather on mobile